sensor_id;sensor_type;location;lat;lon;timestamp;pressure;altitude;pressure_sealevel;temperature;humidity
43820;BME280;67762;52.476;6.046;2023-05-07T00:01:59;101647.19;;;14.19;95.83
43820;BME280;67762;52.476;6.046;2023-05-07T00:04:24;101655.41;;;14.18;95.45
43820;BME280;67762;52.476;6.046;2023-05-07T00:06:50;101656.41;;;14.17;95.72
43820;BME280;67762;52.476;6.046;2023-05-07T00:09:16;101654.56;;;14.17;95.82
43820;BME280;67762;52.476;6.046;2023-05-07T00:11:42;101659.09;;;14.17;95.69
43820;BME280;67762;52.476;6.046;2023-05-07T00:14:07;101650.19;;;14.16;95.70
43820;BME280;67762;52.476;6.046;2023-05-07T00:16:33;101654.75;;;14.16;95.69
43820;BME280;67762;52.476;6.046;2023-05-07T00:18:58;101655.56;;;14.16;95.81
43820;BME280;67762;52.476;6.046;2023-05-07T00:21:24;101650.19;;;14.16;95.86
43820;BME280;67762;52.476;6.046;2023-05-07T00:23:53;101643.16;;;14.15;96.00
43820;BME280;67762;52.476;6.046;2023-05-07T00:26:19;101644.03;;;14.16;95.97
43820;BME280;67762;52.476;6.046;2023-05-07T00:28:47;101651.03;;;14.17;95.97
43820;BME280;67762;52.476;6.046;2023-05-07T00:31:13;101652.72;;;14.18;96.05
43820;BME280;67762;52.476;6.046;2023-05-07T00:33:38;101650.91;;;14.18;96.10
43820;BME280;67762;52.476;6.046;2023-05-07T00:36:04;101649.19;;;14.17;96.06
43820;BME280;67762;52.476;6.046;2023-05-07T00:38:30;101649.19;;;14.17;96.07
43820;BME280;67762;52.476;6.046;2023-05-07T00:40:56;101641.34;;;14.16;96.18
43820;BME280;67762;52.476;6.046;2023-05-07T00:43:21;101632.25;;;14.17;96.00
43820;BME280;67762;52.476;6.046;2023-05-07T00:45:47;101629.75;;;14.15;95.95
43820;BME280;67762;52.476;6.046;2023-05-07T00:48:13;101631.41;;;14.16;96.00
43820;BME280;67762;52.476;6.046;2023-05-07T00:50:39;101632.25;;;14.17;96.16
43820;BME280;67762;52.476;6.046;2023-05-07T00:53:04;101637.47;;;14.18;96.27
43820;BME280;67762;52.476;6.046;2023-05-07T00:55:30;101635.78;;;14.17;96.02
43820;BME280;67762;52.476;6.046;2023-05-07T00:57:56;101629.41;;;14.18;96.25
43820;BME280;67762;52.476;6.046;2023-05-07T01:00:21;101628.56;;;14.18;96.14
43820;BME280;67762;52.476;6.046;2023-05-07T01:02:47;101626.88;;;14.17;96.52
43820;BME280;67762;52.476;6.046;2023-05-07T01:05:15;101624.38;;;14.15;96.27
43820;BME280;67762;52.476;6.046;2023-05-07T01:07:43;101626.22;;;14.15;96.13
43820;BME280;67762;52.476;6.046;2023-05-07T01:10:09;101623.53;;;14.15;96.16
43820;BME280;67762;52.476;6.046;2023-05-07T01:12:37;101620.84;;;14.15;96.48
43820;BME280;67762;52.476;6.046;2023-05-07T01:15:03;101608.44;;;14.14;96.08
43820;BME280;67762;52.476;6.046;2023-05-07T01:17:35;101618.50;;;14.12;96.17
43820;BME280;67762;52.476;6.046;2023-05-07T01:20:01;101613.97;;;14.12;95.87
43820;BME280;67762;52.476;6.046;2023-05-07T01:22:47;101618.69;;;14.10;96.29
43820;BME280;67762;52.476;6.046;2023-05-07T01:25:14;101611.13;;;14.14;95.94
43820;BME280;67762;52.476;6.046;2023-05-07T01:27:46;101611.97;;;14.14;96.22
43820;BME280;67762;52.476;6.046;2023-05-07T01:30:11;101613.66;;;14.15;96.35
43820;BME280;67762;52.476;6.046;2023-05-07T01:33:06;101613.13;;;14.12;96.07
43820;BME280;67762;52.476;6.046;2023-05-07T01:35:41;101611.13;;;14.14;96.15
43820;BME280;67762;52.476;6.046;2023-05-07T01:38:09;101615.50;;;14.15;96.48
43820;BME280;67762;52.476;6.046;2023-05-07T01:40:35;101617.31;;;14.14;96.38
43820;BME280;67762;52.476;6.046;2023-05-07T01:43:05;101620.19;;;14.13;96.21
43820;BME280;67762;52.476;6.046;2023-05-07T01:45:34;101627.06;;;14.15;96.31
43820;BME280;67762;52.476;6.046;2023-05-07T01:48:02;101625.22;;;14.16;96.27
43820;BME280;67762;52.476;6.046;2023-05-07T01:50:28;101618.19;;;14.15;96.22
43820;BME280;67762;52.476;6.046;2023-05-07T01:52:54;101623.53;;;14.15;96.05
43820;BME280;67762;52.476;6.046;2023-05-07T01:55:20;101624.53;;;14.14;96.22
43820;BME280;67762;52.476;6.046;2023-05-07T01:57:46;101622.03;;;14.12;96.33
43820;BME280;67762;52.476;6.046;2023-05-07T02:00:12;101619.34;;;14.12;96.13
43820;BME280;67762;52.476;6.046;2023-05-07T02:02:44;101621.19;;;14.12;96.14
43820;BME280;67762;52.476;6.046;2023-05-07T02:05:20;101626.56;;;14.12;96.29
43820;BME280;67762;52.476;6.046;2023-05-07T02:07:52;101632.78;;;14.12;96.24
43820;BME280;67762;52.476;6.046;2023-05-07T02:10:18;101633.75;;;14.11;96.02
43820;BME280;67762;52.476;6.046;2023-05-07T02:12:44;101629.41;;;14.10;96.71
43820;BME280;67762;52.476;6.046;2023-05-07T02:15:10;101632.91;;;14.11;96.12
43820;BME280;67762;52.476;6.046;2023-05-07T02:17:39;101636.78;;;14.08;96.20
43820;BME280;67762;52.476;6.046;2023-05-07T02:20:23;101647.50;;;14.08;96.09
43820;BME280;67762;52.476;6.046;2023-05-07T02:22:49;101637.09;;;14.05;95.73
43820;BME280;67762;52.476;6.046;2023-05-07T02:25:15;101635.44;;;14.04;96.32
43820;BME280;67762;52.476;6.046;2023-05-07T02:27:40;101624.22;;;14.00;96.13
43820;BME280;67762;52.476;6.046;2023-05-07T02:30:07;101632.44;;;13.99;96.12
43820;BME280;67762;52.476;6.046;2023-05-07T02:32:33;101622.88;;;13.96;96.38
43820;BME280;67762;52.476;6.046;2023-05-07T02:34:58;101630.22;;;13.94;96.16
43820;BME280;67762;52.476;6.046;2023-05-07T02:37:24;101626.22;;;13.90;96.19
43820;BME280;67762;52.476;6.046;2023-05-07T02:39:50;101630.75;;;13.90;96.21
43820;BME280;67762;52.476;6.046;2023-05-07T02:42:16;101637.94;;;13.89;96.19
43820;BME280;67762;52.476;6.046;2023-05-07T02:44:41;101639.97;;;13.87;95.92
43820;BME280;67762;52.476;6.046;2023-05-07T02:47:07;101636.63;;;13.85;96.20
43820;BME280;67762;52.476;6.046;2023-05-07T02:49:34;101634.09;;;13.84;96.52
43820;BME280;67762;52.476;6.046;2023-05-07T02:52:00;101636.75;;;13.84;96.31
43820;BME280;67762;52.476;6.046;2023-05-07T02:54:26;101643.31;;;13.81;96.24
43820;BME280;67762;52.476;6.046;2023-05-07T02:56:52;101636.44;;;13.79;96.29
43820;BME280;67762;52.476;6.046;2023-05-07T02:59:17;101632.25;;;13.76;96.02
43820;BME280;67762;52.476;6.046;2023-05-07T03:01:43;101641.47;;;13.74;96.14
43820;BME280;67762;52.476;6.046;2023-05-07T03:04:10;101634.41;;;13.73;96.08
43820;BME280;67762;52.476;6.046;2023-05-07T03:06:36;101633.88;;;13.69;96.37
43820;BME280;67762;52.476;6.046;2023-05-07T03:09:02;101632.38;;;13.67;96.25
43820;BME280;67762;52.476;6.046;2023-05-07T03:11:29;101634.38;;;13.65;96.07
43820;BME280;67762;52.476;6.046;2023-05-07T03:13:55;101633.72;;;13.63;96.15
43820;BME280;67762;52.476;6.046;2023-05-07T03:16:21;101636.56;;;13.61;95.88
43820;BME280;67762;52.476;6.046;2023-05-07T03:18:47;101640.25;;;13.60;96.08
43820;BME280;67762;52.476;6.046;2023-05-07T03:21:12;101634.38;;;13.57;96.06
43820;BME280;67762;52.476;6.046;2023-05-07T03:23:38;101635.53;;;13.54;96.36
43820;BME280;67762;52.476;6.046;2023-05-07T03:26:04;101639.22;;;13.53;95.92
43820;BME280;67762;52.476;6.046;2023-05-07T03:28:30;101644.91;;;13.50;96.02
43820;BME280;67762;52.476;6.046;2023-05-07T03:30:59;101639.88;;;13.47;95.57
43820;BME280;67762;52.476;6.046;2023-05-07T03:33:25;101638.34;;;13.44;95.87
43820;BME280;67762;52.476;6.046;2023-05-07T03:35:50;101631.81;;;13.39;95.78
43820;BME280;67762;52.476;6.046;2023-05-07T03:38:21;101632.13;;;13.36;95.80
43820;BME280;67762;52.476;6.046;2023-05-07T03:40:46;101638.81;;;13.32;95.60
43820;BME280;67762;52.476;6.046;2023-05-07T03:43:12;101632.94;;;13.28;96.07
43820;BME280;67762;52.476;6.046;2023-05-07T03:45:42;101638.63;;;13.25;95.67
43820;BME280;67762;52.476;6.046;2023-05-07T03:48:15;101639.97;;;13.21;95.91
43820;BME280;67762;52.476;6.046;2023-05-07T03:50:41;101648.16;;;13.20;95.53
43820;BME280;67762;52.476;6.046;2023-05-07T03:53:07;101644.94;;;13.16;95.26
43820;BME280;67762;52.476;6.046;2023-05-07T03:55:37;101645.13;;;13.15;95.50
43820;BME280;67762;52.476;6.046;2023-05-07T03:58:03;101645.44;;;13.12;95.36
43820;BME280;67762;52.476;6.046;2023-05-07T04:00:28;101648.44;;;13.09;94.98
43820;BME280;67762;52.476;6.046;2023-05-07T04:02:58;101642.38;;;13.07;94.84
43820;BME280;67762;52.476;6.046;2023-05-07T04:05:26;101654.25;;;13.04;95.42
43820;BME280;67762;52.476;6.046;2023-05-07T04:08:00;101649.03;;;13.03;95.53
43820;BME280;67762;52.476;6.046;2023-05-07T04:10:34;101663.44;;;13.02;95.00
43820;BME280;67762;52.476;6.046;2023-05-07T04:13:03;101667.28;;;12.99;94.79
43820;BME280;67762;52.476;6.046;2023-05-07T04:15:29;101670.78;;;13.00;95.43
43820;BME280;67762;52.476;6.046;2023-05-07T04:17:55;101664.63;;;12.99;94.87
43820;BME280;67762;52.476;6.046;2023-05-07T04:20:23;101666.44;;;12.99;94.96
43820;BME280;67762;52.476;6.046;2023-05-07T04:22:55;101668.47;;;12.97;95.11
43820;BME280;67762;52.476;6.046;2023-05-07T04:25:22;101665.06;;;12.95;95.60
43820;BME280;67762;52.476;6.046;2023-05-07T04:27:56;101668.78;;;12.94;95.36
43820;BME280;67762;52.476;6.046;2023-05-07T04:30:25;101662.88;;;12.90;95.06
43820;BME280;67762;52.476;6.046;2023-05-07T04:32:51;101660.34;;;12.88;95.33
43820;BME280;67762;52.476;6.046;2023-05-07T04:35:19;101657.97;;;12.85;95.57
43820;BME280;67762;52.476;6.046;2023-05-07T04:37:44;101663.69;;;12.82;94.80
43820;BME280;67762;52.476;6.046;2023-05-07T04:40:11;101664.66;;;12.81;95.33
43820;BME280;67762;52.476;6.046;2023-05-07T04:42:37;101662.97;;;12.80;94.71
43820;BME280;67762;52.476;6.046;2023-05-07T04:45:03;101659.31;;;12.81;94.56
43820;BME280;67762;52.476;6.046;2023-05-07T04:47:32;101662.13;;;12.80;94.56
43820;BME280;67762;52.476;6.046;2023-05-07T04:49:59;101665.66;;;12.80;94.95
43820;BME280;67762;52.476;6.046;2023-05-07T04:52:24;101659.81;;;12.77;94.86
43820;BME280;67762;52.476;6.046;2023-05-07T04:54:51;101674.00;;;12.77;95.20
43820;BME280;67762;52.476;6.046;2023-05-07T04:57:16;101670.81;;;12.74;95.14
43820;BME280;67762;52.476;6.046;2023-05-07T04:59:43;101677.16;;;12.73;94.91
43820;BME280;67762;52.476;6.046;2023-05-07T05:02:12;101677.16;;;12.73;94.21
43820;BME280;67762;52.476;6.046;2023-05-07T05:04:38;101681.53;;;12.74;94.98
43820;BME280;67762;52.476;6.046;2023-05-07T05:07:04;101687.88;;;12.73;94.97
43820;BME280;67762;52.476;6.046;2023-05-07T05:09:30;101687.03;;;12.72;94.84
43820;BME280;67762;52.476;6.046;2023-05-07T05:11:56;101683.38;;;12.73;95.04
43820;BME280;67762;52.476;6.046;2023-05-07T05:14:22;101694.22;;;12.72;94.90
43820;BME280;67762;52.476;6.046;2023-05-07T05:16:49;101690.56;;;12.73;94.77
43820;BME280;67762;52.476;6.046;2023-05-07T05:19:15;101695.06;;;12.72;94.04
43820;BME280;67762;52.476;6.046;2023-05-07T05:21:42;101701.09;;;12.74;94.05
43820;BME280;67762;52.476;6.046;2023-05-07T05:24:09;101707.84;;;12.78;94.58
43820;BME280;67762;52.476;6.046;2023-05-07T05:26:35;101702.16;;;12.81;94.34
43820;BME280;67762;52.476;6.046;2023-05-07T05:29:01;101697.66;;;12.82;93.67
43820;BME280;67762;52.476;6.046;2023-05-07T05:31:29;101705.84;;;12.80;93.48
43820;BME280;67762;52.476;6.046;2023-05-07T05:33:55;101717.09;;;12.84;93.74
43820;BME280;67762;52.476;6.046;2023-05-07T05:36:21;101713.56;;;12.83;93.40
43820;BME280;67762;52.476;6.046;2023-05-07T05:38:48;101709.72;;;12.86;94.11
43820;BME280;67762;52.476;6.046;2023-05-07T05:41:14;101721.28;;;12.86;93.77
43820;BME280;67762;52.476;6.046;2023-05-07T05:43:40;101721.91;;;12.80;93.86
43820;BME280;67762;52.476;6.046;2023-05-07T05:46:06;101709.84;;;12.76;93.82
43820;BME280;67762;52.476;6.046;2023-05-07T05:48:33;101715.03;;;12.78;92.89
43820;BME280;67762;52.476;6.046;2023-05-07T05:51:00;101717.88;;;12.76;93.22
43820;BME280;67762;52.476;6.046;2023-05-07T05:53:26;101726.34;;;12.72;93.50
43820;BME280;67762;52.476;6.046;2023-05-07T05:55:53;101728.91;;;12.73;93.42
43820;BME280;67762;52.476;6.046;2023-05-07T05:58:18;101730.41;;;12.76;93.32
43820;BME280;67762;52.476;6.046;2023-05-07T06:00:50;101728.28;;;12.79;93.13
43820;BME280;67762;52.476;6.046;2023-05-07T06:03:18;101720.25;;;12.79;93.08
43820;BME280;67762;52.476;6.046;2023-05-07T06:05:44;101723.28;;;12.84;92.77
43820;BME280;67762;52.476;6.046;2023-05-07T06:08:11;101727.63;;;12.85;92.89
43820;BME280;67762;52.476;6.046;2023-05-07T06:10:37;101737.41;;;12.95;92.20
43820;BME280;67762;52.476;6.046;2023-05-07T06:13:05;101741.25;;;12.92;92.44
43820;BME280;67762;52.476;6.046;2023-05-07T06:15:32;101740.78;;;12.97;92.00
43820;BME280;67762;52.476;6.046;2023-05-07T06:18:03;101735.09;;;13.00;92.05
43820;BME280;67762;52.476;6.046;2023-05-07T06:20:29;101739.47;;;13.01;91.46
43820;BME280;67762;52.476;6.046;2023-05-07T06:22:56;101726.91;;;13.01;91.33
43820;BME280;67762;52.476;6.046;2023-05-07T06:25:21;101730.25;;;13.03;91.71
43820;BME280;67762;52.476;6.046;2023-05-07T06:27:47;101734.03;;;13.10;91.48
43820;BME280;67762;52.476;6.046;2023-05-07T06:30:13;101738.94;;;13.23;91.02
43820;BME280;67762;52.476;6.046;2023-05-07T06:32:40;101732.28;;;13.27;91.28
43820;BME280;67762;52.476;6.046;2023-05-07T06:35:06;101743.19;;;13.33;90.73
43820;BME280;67762;52.476;6.046;2023-05-07T06:37:35;101730.53;;;13.43;91.01
43820;BME280;67762;52.476;6.046;2023-05-07T06:40:05;101741.41;;;13.42;90.67
43820;BME280;67762;52.476;6.046;2023-05-07T06:42:36;101739.06;;;13.47;90.97
43820;BME280;67762;52.476;6.046;2023-05-07T06:45:20;101734.94;;;13.61;90.75
43820;BME280;67762;52.476;6.046;2023-05-07T06:47:46;101752.41;;;13.65;90.54
43820;BME280;67762;52.476;6.046;2023-05-07T06:50:13;101736.13;;;13.66;90.28
43820;BME280;67762;52.476;6.046;2023-05-07T06:52:42;101741.16;;;13.69;90.30
43820;BME280;67762;52.476;6.046;2023-05-07T06:55:09;101743.69;;;13.71;89.93
43820;BME280;67762;52.476;6.046;2023-05-07T06:57:34;101745.88;;;13.75;90.03
43820;BME280;67762;52.476;6.046;2023-05-07T07:00:00;101758.00;;;13.87;89.82
43820;BME280;67762;52.476;6.046;2023-05-07T07:02:26;101750.31;;;14.00;89.92
43820;BME280;67762;52.476;6.046;2023-05-07T07:04:52;101745.81;;;14.01;89.61
43820;BME280;67762;52.476;6.046;2023-05-07T07:07:18;101747.00;;;14.06;89.58
43820;BME280;67762;52.476;6.046;2023-05-07T07:09:46;101756.56;;;14.09;89.52
43820;BME280;67762;52.476;6.046;2023-05-07T07:12:15;101757.75;;;14.23;89.22
43820;BME280;67762;52.476;6.046;2023-05-07T07:14:41;101756.06;;;14.14;88.77
43820;BME280;67762;52.476;6.046;2023-05-07T07:17:07;101755.72;;;14.17;88.74
43820;BME280;67762;52.476;6.046;2023-05-07T07:19:33;101758.31;;;14.34;88.64
43820;BME280;67762;52.476;6.046;2023-05-07T07:22:01;101759.81;;;14.45;88.70
43820;BME280;67762;52.476;6.046;2023-05-07T07:24:27;101763.69;;;14.67;88.55
43820;BME280;67762;52.476;6.046;2023-05-07T07:26:56;101766.88;;;14.86;88.33
43820;BME280;67762;52.476;6.046;2023-05-07T07:29:24;101760.84;;;14.84;88.11
43820;BME280;67762;52.476;6.046;2023-05-07T07:31:51;101757.81;;;14.87;88.12
43820;BME280;67762;52.476;6.046;2023-05-07T07:34:19;101757.63;;;14.97;88.00
43820;BME280;67762;52.476;6.046;2023-05-07T07:36:44;101756.59;;;15.06;87.38
43820;BME280;67762;52.476;6.046;2023-05-07T07:39:10;101749.34;;;15.22;86.39
43820;BME280;67762;52.476;6.046;2023-05-07T07:41:36;101750.13;;;15.39;86.40
43820;BME280;67762;52.476;6.046;2023-05-07T07:44:03;101748.78;;;15.43;86.01
43820;BME280;67762;52.476;6.046;2023-05-07T07:46:29;101751.28;;;15.45;85.62
43820;BME280;67762;52.476;6.046;2023-05-07T07:48:55;101756.22;;;15.49;85.36
43820;BME280;67762;52.476;6.046;2023-05-07T07:51:23;101755.03;;;15.52;85.38
43820;BME280;67762;52.476;6.046;2023-05-07T07:53:49;101751.94;;;15.63;84.89
43820;BME280;67762;52.476;6.046;2023-05-07T07:56:16;101748.53;;;15.69;83.87
43820;BME280;67762;52.476;6.046;2023-05-07T07:58:42;101754.81;;;15.92;83.57
43820;BME280;67762;52.476;6.046;2023-05-07T08:01:08;101758.41;;;16.15;84.05
43820;BME280;67762;52.476;6.046;2023-05-07T08:03:33;101756.78;;;16.52;83.71
43820;BME280;67762;52.476;6.046;2023-05-07T08:06:00;101757.34;;;16.70;83.49
43820;BME280;67762;52.476;6.046;2023-05-07T08:08:26;101764.88;;;16.74;82.58
43820;BME280;67762;52.476;6.046;2023-05-07T08:10:53;101768.69;;;16.80;82.64
43820;BME280;67762;52.476;6.046;2023-05-07T08:13:26;101769.22;;;16.98;81.86
43820;BME280;67762;52.476;6.046;2023-05-07T08:15:52;101759.41;;;17.34;81.43
43820;BME280;67762;52.476;6.046;2023-05-07T08:18:18;101761.47;;;17.62;80.16
43820;BME280;67762;52.476;6.046;2023-05-07T08:20:45;101764.16;;;17.62;78.95
43820;BME280;67762;52.476;6.046;2023-05-07T08:23:14;101767.50;;;17.49;78.64
43820;BME280;67762;52.476;6.046;2023-05-07T08:25:41;101765.13;;;17.54;79.47
43820;BME280;67762;52.476;6.046;2023-05-07T08:28:08;101762.38;;;17.69;79.10
43820;BME280;67762;52.476;6.046;2023-05-07T08:30:35;101771.31;;;17.84;78.69
43820;BME280;67762;52.476;6.046;2023-05-07T08:33:01;101760.84;;;18.10;78.27
43820;BME280;67762;52.476;6.046;2023-05-07T08:35:26;101765.28;;;18.18;77.96
43820;BME280;67762;52.476;6.046;2023-05-07T08:37:53;101765.88;;;18.34;76.87
43820;BME280;67762;52.476;6.046;2023-05-07T08:40:25;101760.72;;;18.18;76.34
43820;BME280;67762;52.476;6.046;2023-05-07T08:42:52;101764.19;;;18.33;76.67
43820;BME280;67762;52.476;6.046;2023-05-07T08:45:19;101763.16;;;18.49;75.93
43820;BME280;67762;52.476;6.046;2023-05-07T08:47:55;101759.75;;;18.47;75.59
43820;BME280;67762;52.476;6.046;2023-05-07T08:50:26;101773.44;;;18.60;75.40
43820;BME280;67762;52.476;6.046;2023-05-07T08:52:52;101768.53;;;18.70;74.73
43820;BME280;67762;52.476;6.046;2023-05-07T08:55:20;101771.50;;;18.54;75.40
43820;BME280;67762;52.476;6.046;2023-05-07T08:57:46;101761.78;;;18.59;75.85
43820;BME280;67762;52.476;6.046;2023-05-07T09:00:14;101757.38;;;19.35;75.75
43820;BME280;67762;52.476;6.046;2023-05-07T09:02:42;101762.00;;;19.75;73.16
43820;BME280;67762;52.476;6.046;2023-05-07T09:05:08;101766.22;;;19.84;72.45
43820;BME280;67762;52.476;6.046;2023-05-07T09:07:35;101765.22;;;19.99;70.37
43820;BME280;67762;52.476;6.046;2023-05-07T09:10:06;101766.78;;;20.27;71.17
43820;BME280;67762;52.476;6.046;2023-05-07T09:12:34;101759.75;;;20.46;70.92
43820;BME280;67762;52.476;6.046;2023-05-07T09:15:03;101757.31;;;20.10;71.09
43820;BME280;67762;52.476;6.046;2023-05-07T09:17:31;81040.94;;;19.95;100.00
43820;BME280;67762;52.476;6.046;2023-05-07T09:20:02;61604.63;;;-141.99;100.00
43820;BME280;67762;52.476;6.046;2023-05-07T09:22:35;61604.63;;;-141.99;100.00
43820;BME280;67762;52.476;6.046;2023-05-07T09:25:06;61604.63;;;-141.99;100.00
43820;BME280;67762;52.476;6.046;2023-05-07T09:27:38;61604.63;;;-141.99;100.00
43820;BME280;67762;52.476;6.046;2023-05-07T09:30:07;61604.63;;;-141.99;100.00
43820;BME280;67762;52.476;6.046;2023-05-07T09:32:37;61604.63;;;-141.99;100.00
43820;BME280;67762;52.476;6.046;2023-05-07T09:35:05;61604.63;;;-141.99;100.00
43820;BME280;67762;52.476;6.046;2023-05-07T09:37:31;61604.63;;;-141.99;100.00
43820;BME280;67762;52.476;6.046;2023-05-07T09:39:58;61604.63;;;-141.99;100.00
43820;BME280;67762;52.476;6.046;2023-05-07T09:42:25;61604.63;;;-141.99;100.00
43820;BME280;67762;52.476;6.046;2023-05-07T09:44:55;61604.63;;;-141.99;100.00
43820;BME280;67762;52.476;6.046;2023-05-07T09:47:24;61604.63;;;-141.99;100.00
43820;BME280;67762;52.476;6.046;2023-05-07T09:49:56;61604.63;;;-141.99;100.00
43820;BME280;67762;52.476;6.046;2023-05-07T09:52:23;61604.63;;;-141.99;100.00
43820;BME280;67762;52.476;6.046;2023-05-07T09:54:54;61604.63;;;-141.99;100.00
43820;BME280;67762;52.476;6.046;2023-05-07T09:57:25;61604.63;;;-141.99;100.00
43820;BME280;67762;52.476;6.046;2023-05-07T09:59:58;61604.63;;;-141.99;100.00
43820;BME280;67762;52.476;6.046;2023-05-07T10:02:28;61604.63;;;-141.99;100.00
43820;BME280;67762;52.476;6.046;2023-05-07T10:04:56;61604.63;;;-141.99;100.00
43820;BME280;67762;52.476;6.046;2023-05-07T10:07:28;61604.63;;;-141.99;100.00
43820;BME280;67762;52.476;6.046;2023-05-07T10:09:59;61604.63;;;-141.99;100.00
43820;BME280;67762;52.476;6.046;2023-05-07T10:12:33;61604.63;;;-141.99;100.00
43820;BME280;67762;52.476;6.046;2023-05-07T10:15:06;61604.63;;;-141.99;100.00
43820;BME280;67762;52.476;6.046;2023-05-07T10:17:35;61604.63;;;-141.99;100.00
43820;BME280;67762;52.476;6.046;2023-05-07T10:20:01;61604.63;;;-141.99;100.00
43820;BME280;67762;52.476;6.046;2023-05-07T10:22:28;61604.63;;;-141.99;100.00
43820;BME280;67762;52.476;6.046;2023-05-07T10:24:59;61604.63;;;-141.99;100.00
43820;BME280;67762;52.476;6.046;2023-05-07T10:27:25;61604.63;;;-141.99;100.00
43820;BME280;67762;52.476;6.046;2023-05-07T10:30:07;61604.63;;;-141.99;100.00
43820;BME280;67762;52.476;6.046;2023-05-07T10:32:48;61604.63;;;-141.99;100.00
43820;BME280;67762;52.476;6.046;2023-05-07T10:35:26;61604.63;;;-141.99;100.00
43820;BME280;67762;52.476;6.046;2023-05-07T10:37:56;61604.63;;;-141.99;100.00
43820;BME280;67762;52.476;6.046;2023-05-07T10:40:24;61604.63;;;-141.99;100.00
43820;BME280;67762;52.476;6.046;2023-05-07T10:43:03;61604.63;;;-141.99;100.00
43820;BME280;67762;52.476;6.046;2023-05-07T10:45:35;61604.63;;;-141.99;100.00
43820;BME280;67762;52.476;6.046;2023-05-07T10:50:35;61604.63;;;-141.99;100.00
43820;BME280;67762;52.476;6.046;2023-05-07T10:58:48;61604.63;;;-141.99;100.00
43820;BME280;67762;52.476;6.046;2023-05-07T11:04:18;61604.63;;;-141.99;100.00
43820;BME280;67762;52.476;6.046;2023-05-07T11:07:25;61604.63;;;-141.99;100.00
43820;BME280;67762;52.476;6.046;2023-05-07T11:09:58;61604.63;;;-141.99;100.00
43820;BME280;67762;52.476;6.046;2023-05-07T11:15:14;61604.63;;;-141.99;100.00
43820;BME280;67762;52.476;6.046;2023-05-07T11:17:58;61604.63;;;-141.99;100.00
43820;BME280;67762;52.476;6.046;2023-05-07T11:20:48;61604.63;;;-141.99;100.00
43820;BME280;67762;52.476;6.046;2023-05-07T11:26:20;61604.63;;;-141.99;100.00
43820;BME280;67762;52.476;6.046;2023-05-07T11:28:47;61604.63;;;-141.99;100.00
43820;BME280;67762;52.476;6.046;2023-05-07T11:31:13;61604.63;;;-141.99;100.00
43820;BME280;67762;52.476;6.046;2023-05-07T11:33:40;61604.63;;;-141.99;100.00
43820;BME280;67762;52.476;6.046;2023-05-07T11:36:10;61604.63;;;-141.99;100.00
43820;BME280;67762;52.476;6.046;2023-05-07T11:38:42;61604.63;;;-141.99;100.00
43820;BME280;67762;52.476;6.046;2023-05-07T11:41:08;61604.63;;;-141.99;100.00
43820;BME280;67762;52.476;6.046;2023-05-07T11:43:34;61604.63;;;-141.99;100.00
43820;BME280;67762;52.476;6.046;2023-05-07T11:46:11;61604.63;;;-141.99;100.00
43820;BME280;67762;52.476;6.046;2023-05-07T11:48:38;61604.63;;;-141.99;100.00
43820;BME280;67762;52.476;6.046;2023-05-07T11:51:05;61604.63;;;-141.99;100.00
43820;BME280;67762;52.476;6.046;2023-05-07T11:53:41;61604.63;;;-141.99;100.00
43820;BME280;67762;52.476;6.046;2023-05-07T11:56:11;61604.63;;;-141.99;100.00
43820;BME280;67762;52.476;6.046;2023-05-07T11:58:39;61604.63;;;-141.99;100.00
43820;BME280;67762;52.476;6.046;2023-05-07T12:01:07;61604.63;;;-141.99;100.00
43820;BME280;67762;52.476;6.046;2023-05-07T12:03:35;61604.63;;;-141.99;100.00
43820;BME280;67762;52.476;6.046;2023-05-07T12:06:05;61604.63;;;-141.99;100.00
43820;BME280;67762;52.476;6.046;2023-05-07T12:08:31;61604.63;;;-141.99;100.00
43820;BME280;67762;52.476;6.046;2023-05-07T12:10:57;61604.63;;;-141.99;100.00
43820;BME280;67762;52.476;6.046;2023-05-07T12:13:25;61604.63;;;-141.99;100.00
43820;BME280;67762;52.476;6.046;2023-05-07T12:15:52;61604.63;;;-141.99;100.00
43820;BME280;67762;52.476;6.046;2023-05-07T12:18:18;61604.63;;;-141.99;100.00
43820;BME280;67762;52.476;6.046;2023-05-07T12:20:45;61604.63;;;-141.99;100.00
43820;BME280;67762;52.476;6.046;2023-05-07T12:23:12;61604.63;;;-141.99;100.00
43820;BME280;67762;52.476;6.046;2023-05-07T12:25:39;61604.63;;;-141.99;100.00
43820;BME280;67762;52.476;6.046;2023-05-07T12:28:07;61604.63;;;-141.99;100.00
43820;BME280;67762;52.476;6.046;2023-05-07T12:30:39;61604.63;;;-141.99;100.00
43820;BME280;67762;52.476;6.046;2023-05-07T12:33:05;61604.63;;;-141.99;100.00
43820;BME280;67762;52.476;6.046;2023-05-07T12:35:36;61604.63;;;-141.99;100.00
43820;BME280;67762;52.476;6.046;2023-05-07T12:38:02;61604.63;;;-141.99;100.00
43820;BME280;67762;52.476;6.046;2023-05-07T12:40:41;61604.63;;;-141.99;100.00
43820;BME280;67762;52.476;6.046;2023-05-07T12:43:07;61604.63;;;-141.99;100.00
43820;BME280;67762;52.476;6.046;2023-05-07T12:45:40;61604.63;;;-141.99;100.00
43820;BME280;67762;52.476;6.046;2023-05-07T12:48:06;61604.63;;;-141.99;100.00
43820;BME280;67762;52.476;6.046;2023-05-07T12:50:34;61604.63;;;-141.99;100.00
43820;BME280;67762;52.476;6.046;2023-05-07T12:53:06;61604.63;;;-141.99;100.00
43820;BME280;67762;52.476;6.046;2023-05-07T12:55:44;61604.63;;;-141.99;100.00
43820;BME280;67762;52.476;6.046;2023-05-07T13:00:42;61604.63;;;-141.99;100.00
43820;BME280;67762;52.476;6.046;2023-05-07T13:03:09;61604.63;;;-141.99;100.00
43820;BME280;67762;52.476;6.046;2023-05-07T13:05:35;61604.63;;;-141.99;100.00
43820;BME280;67762;52.476;6.046;2023-05-07T13:08:00;61604.63;;;-141.99;100.00
43820;BME280;67762;52.476;6.046;2023-05-07T13:10:27;61604.63;;;-141.99;100.00